Time;durP1;ratioP1;P1;durP2;ratioP2;P2;SDS_P1;SDS_P2;PMS_P1;PMS_P2;Temp;Humidity;BMP_temperature;BMP_pressure;BME280_temperature;BME280_humidity;BME280_pressure;Samples;Min_cycle;Max_cycle;Signal;HPM_P1;HPM_P2
2021/08/18 00:01:03;;;;;;;16.38;11.60;;;;;;;;;;4877306;29;20097;-91
2021/08/18 00:03:40;;;;;;;16.20;10.73;;;;;;;;;;4876406;29;20105;-91
2021/08/18 00:06:08;;;;;;;17.67;10.73;;;;;;;;;;4877640;29;20244;-91
2021/08/18 00:08:33;;;;;;;19.80;12.32;;;;;;;;;;4892650;29;20451;-91
2021/08/18 00:11:05;;;;;;;17.35;12.13;;;;;;;;;;4886923;29;20027;-92
2021/08/18 00:13:48;;;;;;;20.33;12.57;;;;;;;;;;4888432;29;20020;-92
2021/08/18 00:16:43;;;;;;;20.15;12.18;;;;;;;;;;4876361;29;20277;-92
2021/08/18 00:19:29;;;;;;;18.40;11.63;;;;;;;;;;4861692;29;20033;-92
2021/08/18 00:22:28;;;;;;;19.33;12.48;;;;;;;;;;4878374;29;20093;-91
2021/08/18 00:24:54;;;;;;;17.65;12.13;;;;;;;;;;4864897;29;20426;-91
2021/08/18 00:27:27;;;;;;;19.67;12.93;;;;;;;;;;4888473;29;20031;-92
2021/08/18 00:39:38;;;;;;;18.25;11.82;;;;;;;;;;4837183;29;20018;-91
2021/08/18 00:45:30;;;;;;;15.93;11.38;;;;;;;;;;4787183;29;20054;-91
2021/08/18 00:47:58;;;;;;;18.98;12.38;;;;;;;;;;4841074;29;20469;-93
2021/08/18 00:50:25;;;;;;;18.25;12.50;;;;;;;;;;4870563;29;20048;-91
2021/08/18 00:53:00;;;;;;;23.15;13.95;;;;;;;;;;4895569;29;20383;-91
2021/08/18 00:55:26;;;;;;;19.58;12.18;;;;;;;;;;4881390;29;20245;-91
2021/08/18 00:57:52;;;;;;;18.25;12.68;;;;;;;;;;4887248;29;20081;-90
2021/08/18 01:00:18;;;;;;;17.75;11.90;;;;;;;;;;4879258;29;20036;-91
2021/08/18 01:02:47;;;;;;;19.17;12.23;;;;;;;;;;4880229;29;20160;-91
2021/08/18 01:05:18;;;;;;;20.60;12.57;;;;;;;;;;4888956;29;20041;-91
2021/08/18 01:07:45;;;;;;;17.50;12.13;;;;;;;;;;4871206;29;20385;-91
2021/08/18 01:10:14;;;;;;;17.35;11.50;;;;;;;;;;4872352;29;20028;-91
2021/08/18 01:12:42;;;;;;;19.10;11.83;;;;;;;;;;4853292;29;20017;-90
2021/08/18 01:15:09;;;;;;;19.20;13.45;;;;;;;;;;4872770;29;20040;-90
2021/08/18 01:35:18;;;;;;;19.65;13.10;;;;;;;;;;4750448;30;20036;-92
2021/08/18 01:38:04;;;;;;;19.30;12.93;;;;;;;;;;4752930;30;20046;-90
2021/08/18 01:40:30;;;;;;;19.80;12.65;;;;;;;;;;4877360;29;20349;-91
2021/08/18 01:42:55;;;;;;;19.05;13.02;;;;;;;;;;4880306;29;20108;-91
2021/08/18 01:45:22;;;;;;;21.23;13.40;;;;;;;;;;4882130;29;20039;-91
2021/08/18 01:47:48;;;;;;;23.30;15.32;;;;;;;;;;4880983;29;20025;-91
2021/08/18 01:50:13;;;;;;;22.35;13.55;;;;;;;;;;4889978;29;20081;-90
2021/08/18 01:52:39;;;;;;;25.38;14.07;;;;;;;;;;4884744;29;20032;-90
2021/08/18 01:55:05;;;;;;;20.35;14.20;;;;;;;;;;4879424;29;20105;-90
2021/08/18 01:57:31;;;;;;;19.75;13.93;;;;;;;;;;4881624;29;20017;-90
2021/08/18 01:59:57;;;;;;;21.05;14.10;;;;;;;;;;4878037;29;20350;-91
2021/08/18 02:02:26;;;;;;;21.23;14.63;;;;;;;;;;4882663;29;20116;-90
2021/08/18 02:04:51;;;;;;;20.27;12.82;;;;;;;;;;4880196;29;20158;-89
2021/08/18 02:07:16;;;;;;;20.25;12.98;;;;;;;;;;4881787;29;20048;-90
2021/08/18 02:09:42;;;;;;;20.27;13.88;;;;;;;;;;4885030;29;20024;-89
2021/08/18 02:12:08;;;;;;;19.13;14.27;;;;;;;;;;4888210;29;20036;-89
2021/08/18 02:14:33;;;;;;;22.88;14.48;;;;;;;;;;4866369;29;20033;-89
2021/08/18 02:16:59;;;;;;;21.95;14.02;;;;;;;;;;4877280;29;20110;-88
2021/08/18 02:19:24;;;;;;;22.33;16.27;;;;;;;;;;4882464;29;20718;-89
2021/08/18 02:21:49;;;;;;;24.92;15.52;;;;;;;;;;4882291;29;20058;-89
2021/08/18 02:24:15;;;;;;;21.40;13.80;;;;;;;;;;4887539;29;20025;-90
2021/08/18 02:26:40;;;;;;;27.25;14.68;;;;;;;;;;4880492;29;20013;-90
2021/08/18 02:29:05;;;;;;;21.05;14.05;;;;;;;;;;4872451;29;20025;-89
2021/08/18 02:31:32;;;;;;;22.30;13.98;;;;;;;;;;4874455;29;20026;-89
2021/08/18 02:33:57;;;;;;;22.50;13.93;;;;;;;;;;4882025;29;20380;-89
2021/08/18 02:36:22;;;;;;;19.15;12.77;;;;;;;;;;4889346;29;20035;-91
2021/08/18 02:38:48;;;;;;;20.98;13.45;;;;;;;;;;4870798;29;20089;-90
2021/08/18 02:41:15;;;;;;;18.13;13.70;;;;;;;;;;4885142;29;20029;-90
2021/08/18 02:43:41;;;;;;;21.42;13.35;;;;;;;;;;4886946;29;20041;-89
2021/08/18 02:46:06;;;;;;;20.65;12.68;;;;;;;;;;4877540;29;20056;-91
2021/08/18 02:48:32;;;;;;;20.00;13.70;;;;;;;;;;4879932;29;20112;-90
2021/08/18 02:50:58;;;;;;;19.15;14.43;;;;;;;;;;4881128;29;20084;-91
2021/08/18 02:53:23;;;;;;;20.17;12.35;;;;;;;;;;4877223;29;20075;-90
2021/08/18 02:55:48;;;;;;;21.77;13.85;;;;;;;;;;4881396;29;20029;-91
2021/08/18 02:58:20;;;;;;;20.98;13.02;;;;;;;;;;4878749;29;20033;-91
2021/08/18 03:00:45;;;;;;;19.75;13.77;;;;;;;;;;4877382;29;20462;-90
2021/08/18 03:03:19;;;;;;;19.08;13.93;;;;;;;;;;4885521;29;20057;-90
2021/08/18 03:05:45;;;;;;;18.55;13.20;;;;;;;;;;4875555;29;20397;-91
2021/08/18 03:08:11;;;;;;;17.23;12.95;;;;;;;;;;4885116;29;20037;-91
2021/08/18 03:10:36;;;;;;;17.77;11.63;;;;;;;;;;4879127;29;20017;-91
2021/08/18 03:13:08;;;;;;;22.25;12.25;;;;;;;;;;4883306;29;20077;-90
2021/08/18 03:15:36;;;;;;;18.17;13.43;;;;;;;;;;4886831;29;20029;-91
2021/08/18 03:18:01;;;;;;;21.38;13.70;;;;;;;;;;4860652;29;20048;-90
2021/08/18 03:20:26;;;;;;;22.15;14.23;;;;;;;;;;4883005;29;20025;-89
2021/08/18 03:22:52;;;;;;;19.98;13.82;;;;;;;;;;4878927;29;20029;-90
2021/08/18 03:25:19;;;;;;;18.88;13.15;;;;;;;;;;4889655;29;20032;-91
2021/08/18 03:27:45;;;;;;;17.98;13.45;;;;;;;;;;4888186;29;20361;-91
2021/08/18 03:30:11;;;;;;;21.55;14.10;;;;;;;;;;4883675;29;20076;-91
2021/08/18 03:32:36;;;;;;;19.85;14.05;;;;;;;;;;4883143;29;20021;-90
2021/08/18 03:35:13;;;;;;;19.67;13.68;;;;;;;;;;4882478;29;20036;-91
2021/08/18 03:37:44;;;;;;;19.30;13.85;;;;;;;;;;4882369;29;20472;-91
2021/08/18 03:40:09;;;;;;;20.65;13.88;;;;;;;;;;4882579;29;20406;-90
2021/08/18 03:42:38;;;;;;;23.20;14.00;;;;;;;;;;4887474;29;20032;-91
2021/08/18 03:45:06;;;;;;;20.83;13.65;;;;;;;;;;4892445;29;20037;-91
2021/08/18 03:47:40;;;;;;;21.70;14.30;;;;;;;;;;4882518;29;20017;-89
2021/08/18 03:58:38;;;;;;;16.50;12.85;;;;;;;;;;5072850;23;20051;-90
2021/08/18 04:01:03;;;;;;;20.38;13.65;;;;;;;;;;4957888;28;20034;-89
2021/08/18 04:03:32;;;;;;;20.00;14.70;;;;;;;;;;4955602;28;20532;-91
2021/08/18 04:05:58;;;;;;;21.05;14.57;;;;;;;;;;4953603;28;20434;-90
2021/08/18 04:08:23;;;;;;;21.45;14.25;;;;;;;;;;4961881;28;20018;-91
2021/08/18 04:10:48;;;;;;;19.70;13.40;;;;;;;;;;4962882;28;20102;-91
2021/08/18 04:13:14;;;;;;;23.17;13.93;;;;;;;;;;4957855;28;20043;-90
2021/08/18 04:15:40;;;;;;;19.63;13.73;;;;;;;;;;4957049;28;20030;-90
2021/08/18 04:29:05;;;;;;;20.58;13.73;;;;;;;;;;4807010;29;20042;-92
2021/08/18 04:31:34;;;;;;;21.48;13.10;;;;;;;;;;4827461;29;20112;-91
2021/08/18 04:34:00;;;;;;;20.77;12.88;;;;;;;;;;4896433;29;20039;-89
2021/08/18 04:36:25;;;;;;;18.02;12.73;;;;;;;;;;4941517;28;20023;-90
2021/08/18 04:38:50;;;;;;;18.33;11.98;;;;;;;;;;4962952;28;20054;-90
2021/08/18 04:41:16;;;;;;;18.10;13.38;;;;;;;;;;4963508;28;20023;-89
2021/08/18 04:43:41;;;;;;;18.58;13.07;;;;;;;;;;4956826;28;20032;-89
2021/08/18 04:46:09;;;;;;;19.33;12.02;;;;;;;;;;4959690;28;20016;-89
2021/08/18 04:48:34;;;;;;;16.70;12.00;;;;;;;;;;4968405;28;20535;-91
2021/08/18 04:51:02;;;;;;;18.08;11.73;;;;;;;;;;4964429;28;20033;-90
2021/08/18 04:53:28;;;;;;;18.77;12.32;;;;;;;;;;4953885;28;20031;-90
2021/08/18 04:55:53;;;;;;;14.93;11.10;;;;;;;;;;4944631;28;20466;-92
2021/08/18 04:58:19;;;;;;;18.00;12.95;;;;;;;;;;4946323;28;20087;-93
2021/08/18 05:00:44;;;;;;;16.42;11.55;;;;;;;;;;4934101;29;20019;-91
2021/08/18 05:03:13;;;;;;;16.63;10.70;;;;;;;;;;4940792;28;20031;-93
2021/08/18 05:05:39;;;;;;;17.92;11.57;;;;;;;;;;4944187;28;20023;-91
2021/08/18 05:08:06;;;;;;;16.27;11.57;;;;;;;;;;4929965;29;20090;-90
2021/08/18 05:13:59;;;;;;;;;;;;;;;;;;;;;
2021/08/18 05:16:34;;;;;;;16.88;11.07;;;;;;;;;;4930087;28;20031;-91
2021/08/18 05:19:02;;;;;;;16.48;9.82;;;;;;;;;;4931479;29;20035;-91
2021/08/18 05:21:28;;;;;;;14.90;9.80;;;;;;;;;;4949370;28;20329;-92
2021/08/18 05:23:53;;;;;;;15.32;10.20;;;;;;;;;;4946121;28;20024;-90
2021/08/18 05:26:19;;;;;;;13.52;9.60;;;;;;;;;;4941897;28;20047;-90
2021/08/18 05:28:44;;;;;;;14.40;9.73;;;;;;;;;;4939014;28;20019;-87
2021/08/18 05:31:13;;;;;;;15.13;10.32;;;;;;;;;;4946157;28;21210;-92
2021/08/18 05:33:38;;;;;;;12.77;8.95;;;;;;;;;;4949746;28;20789;-89
2021/08/18 05:36:10;;;;;;;12.45;7.95;;;;;;;;;;4943604;28;20020;-93
2021/08/18 05:38:37;;;;;;;15.43;9.70;;;;;;;;;;4955653;28;20019;-90
2021/08/18 05:41:19;;;;;;;12.38;7.45;;;;;;;;;;4937906;28;20042;-93
2021/08/18 05:43:44;;;;;;;10.95;7.82;;;;;;;;;;4938719;28;20036;-87
2021/08/18 05:46:09;;;;;;;11.95;8.23;;;;;;;;;;4937593;28;20549;-88
2021/08/18 05:48:35;;;;;;;12.00;7.50;;;;;;;;;;4944728;28;20019;-89
2021/08/18 05:51:00;;;;;;;11.88;7.78;;;;;;;;;;4932971;29;20271;-87
2021/08/18 05:53:26;;;;;;;10.43;7.07;;;;;;;;;;4939419;28;20490;-89
2021/08/18 05:55:53;;;;;;;11.90;7.37;;;;;;;;;;4942878;28;20043;-93
2021/08/18 05:58:36;;;;;;;12.63;7.30;;;;;;;;;;4940183;28;20110;-88
2021/08/18 06:01:02;;;;;;;11.52;6.93;;;;;;;;;;4940004;28;20032;-86
2021/08/18 06:03:27;;;;;;;9.35;6.50;;;;;;;;;;4940664;28;20474;-85
2021/08/18 06:05:52;;;;;;;17.60;11.55;;;;;;;;;;4957450;28;20149;-91
2021/08/18 06:08:18;;;;;;;14.30;7.93;;;;;;;;;;4952299;28;20019;-91
2021/08/18 06:10:46;;;;;;;12.43;8.60;;;;;;;;;;4951190;28;20024;-93
2021/08/18 06:13:14;;;;;;;13.82;7.90;;;;;;;;;;4942204;28;20662;-89
2021/08/18 06:15:39;;;;;;;12.55;7.13;;;;;;;;;;4927616;28;20027;-88
2021/08/18 06:18:13;;;;;;;10.18;7.28;;;;;;;;;;4942264;28;20042;-92
2021/08/18 06:20:39;;;;;;;9.50;6.35;;;;;;;;;;4952195;28;20019;-90
2021/08/18 06:23:04;;;;;;;9.73;6.40;;;;;;;;;;4931922;29;20032;-90
2021/08/18 06:25:29;;;;;;;12.63;7.43;;;;;;;;;;4949181;28;20027;-89
2021/08/18 06:27:55;;;;;;;10.13;6.97;;;;;;;;;;4944620;28;20474;-89
2021/08/18 06:30:20;;;;;;;10.93;6.28;;;;;;;;;;4930932;29;20158;-88
2021/08/18 06:32:46;;;;;;;11.10;6.43;;;;;;;;;;4953551;28;20027;-89
2021/08/18 06:35:11;;;;;;;9.77;6.03;;;;;;;;;;4944238;28;20047;-90
2021/08/18 06:37:37;;;;;;;8.52;6.18;;;;;;;;;;4941653;28;20027;-88
2021/08/18 06:40:03;;;;;;;8.70;5.40;;;;;;;;;;4950746;28;20266;-87
2021/08/18 06:42:29;;;;;;;10.35;6.18;;;;;;;;;;4961640;28;20094;-90
2021/08/18 06:45:38;;;;;;;11.00;8.02;;;;;;;;;;4924919;28;20027;-92
2021/08/18 06:48:04;;;;;;;17.63;13.07;;;;;;;;;;4937023;28;20245;-89
2021/08/18 06:50:29;;;;;;;13.07;9.43;;;;;;;;;;4946308;28;20031;-90
2021/08/18 06:52:57;;;;;;;8.98;5.95;;;;;;;;;;4939928;28;20024;-90
2021/08/18 06:55:25;;;;;;;11.27;6.50;;;;;;;;;;4933025;29;20131;-89
2021/08/18 06:57:50;;;;;;;10.82;6.38;;;;;;;;;;4946692;28;20462;-86
2021/08/18 07:00:17;;;;;;;10.75;6.80;;;;;;;;;;4941963;28;20027;-90
2021/08/18 07:02:43;;;;;;;10.07;6.68;;;;;;;;;;4924307;29;20028;-90
2021/08/18 07:05:09;;;;;;;9.13;6.32;;;;;;;;;;4932628;28;20495;-90
2021/08/18 07:07:34;;;;;;;8.27;5.80;;;;;;;;;;4948382;29;20034;-89
2021/08/18 07:09:59;;;;;;;9.15;5.78;;;;;;;;;;4934877;29;20638;-89
2021/08/18 07:12:25;;;;;;;11.30;8.07;;;;;;;;;;4950859;28;20154;-89
2021/08/18 07:14:50;;;;;;;23.35;19.48;;;;;;;;;;4951180;28;20749;-89
2021/08/18 07:17:24;;;;;;;11.35;6.70;;;;;;;;;;4950058;28;20038;-91
2021/08/18 07:19:50;;;;;;;11.68;5.50;;;;;;;;;;4953693;28;20065;-89
2021/08/18 07:22:16;;;;;;;11.95;5.90;;;;;;;;;;4943210;28;20478;-91
2021/08/18 07:24:41;;;;;;;11.40;5.10;;;;;;;;;;4943616;28;20498;-91
2021/08/18 07:27:06;;;;;;;9.52;5.03;;;;;;;;;;4941724;28;20075;-90
2021/08/18 07:29:32;;;;;;;8.93;5.78;;;;;;;;;;4955682;28;20019;-91
2021/08/18 07:31:57;;;;;;;9.95;5.68;;;;;;;;;;4946413;28;20016;-91
2021/08/18 07:34:23;;;;;;;7.68;4.57;;;;;;;;;;4947098;28;20023;-89
2021/08/18 07:36:48;;;;;;;8.60;4.55;;;;;;;;;;4949110;28;20031;-89
2021/08/18 07:39:14;;;;;;;9.43;4.68;;;;;;;;;;4951174;28;20019;-89
2021/08/18 07:41:39;;;;;;;9.50;4.57;;;;;;;;;;4946230;28;20022;-90
2021/08/18 07:44:07;;;;;;;8.40;4.85;;;;;;;;;;4946827;28;20093;-90
2021/08/18 07:46:32;;;;;;;8.07;4.47;;;;;;;;;;4942219;28;20023;-91
2021/08/18 07:48:58;;;;;;;5.40;4.10;;;;;;;;;;4948433;28;20034;-90
2021/08/18 07:51:23;;;;;;;7.78;4.40;;;;;;;;;;4944330;28;20032;-88
2021/08/18 07:53:49;;;;;;;5.82;3.55;;;;;;;;;;4948002;28;20015;-89
2021/08/18 07:56:14;;;;;;;5.78;3.50;;;;;;;;;;4941849;28;20051;-89
2021/08/18 07:58:39;;;;;;;6.43;3.97;;;;;;;;;;4952002;28;20047;-88
2021/08/18 08:01:05;;;;;;;4.53;3.17;;;;;;;;;;4951499;28;20036;-90
2021/08/18 08:03:30;;;;;;;5.60;3.40;;;;;;;;;;4931728;28;20034;-90
2021/08/18 08:05:56;;;;;;;4.22;2.75;;;;;;;;;;4943993;28;20020;-91
2021/08/18 08:08:21;;;;;;;4.43;2.80;;;;;;;;;;4929994;29;20509;-89
2021/08/18 08:10:47;;;;;;;3.22;2.40;;;;;;;;;;4945843;28;20011;-90
2021/08/18 08:13:12;;;;;;;3.15;2.42;;;;;;;;;;4940902;28;20023;-89
2021/08/18 08:15:47;;;;;;;3.78;2.28;;;;;;;;;;4944982;28;20031;-90
2021/08/18 08:18:13;;;;;;;2.78;2.13;;;;;;;;;;4939910;28;20086;-86
2021/08/18 08:20:41;;;;;;;3.47;2.00;;;;;;;;;;4940259;28;20067;-88
2021/08/18 08:23:06;;;;;;;3.25;1.60;;;;;;;;;;4945443;28;20042;-87
2021/08/18 08:25:32;;;;;;;2.65;2.08;;;;;;;;;;4941911;28;20098;-86
2021/08/18 08:27:58;;;;;;;2.40;1.52;;;;;;;;;;4943811;28;20055;-86
2021/08/18 08:30:23;;;;;;;1.60;1.50;;;;;;;;;;4940902;28;20421;-88
2021/08/18 08:32:49;;;;;;;3.33;1.55;;;;;;;;;;4942309;28;20498;-86
2021/08/18 08:35:15;;;;;;;2.05;1.38;;;;;;;;;;4939343;28;20094;-86
2021/08/18 08:37:40;;;;;;;1.67;1.40;;;;;;;;;;4928073;28;20028;-85
2021/08/18 08:40:06;;;;;;;4.00;2.03;;;;;;;;;;4940820;28;20524;-86
2021/08/18 08:42:32;;;;;;;2.45;1.60;;;;;;;;;;4942512;28;20483;-86
2021/08/18 08:44:59;;;;;;;1.73;1.45;;;;;;;;;;4937326;28;20028;-88
2021/08/18 08:47:25;;;;;;;1.98;1.23;;;;;;;;;;4944545;28;20020;-88
2021/08/18 08:49:51;;;;;;;1.73;1.40;;;;;;;;;;4949911;28;20042;-88
2021/08/18 08:52:16;;;;;;;2.38;1.35;;;;;;;;;;4928913;29;20026;-89
2021/08/18 08:54:47;;;;;;;1.65;1.55;;;;;;;;;;4939001;28;20054;-87
2021/08/18 08:57:13;;;;;;;1.70;1.33;;;;;;;;;;4941051;28;20040;-86
2021/08/18 08:59:38;;;;;;;3.13;1.30;;;;;;;;;;4943300;28;20667;-89
2021/08/18 09:02:06;;;;;;;1.75;1.30;;;;;;;;;;4943507;28;20039;-88
2021/08/18 09:04:45;;;;;;;1.67;1.50;;;;;;;;;;4939789;28;20359;-87
2021/08/18 09:07:21;;;;;;;2.40;1.30;;;;;;;;;;4936736;28;20019;-88
2021/08/18 09:09:50;;;;;;;11.68;9.18;;;;;;;;;;4941963;28;20363;-88
2021/08/18 09:12:16;;;;;;;16.50;11.75;;;;;;;;;;4928034;29;20055;-86
2021/08/18 09:14:42;;;;;;;3.95;2.00;;;;;;;;;;4941237;28;20028;-88
2021/08/18 09:17:26;;;;;;;2.85;1.45;;;;;;;;;;4929258;28;20584;-88
2021/08/18 09:20:11;;;;;;;2.10;1.30;;;;;;;;;;4936152;28;20011;-87
2021/08/18 09:22:39;;;;;;;1.48;1.30;;;;;;;;;;4938610;28;20758;-87
2021/08/18 09:25:39;;;;;;;2.22;1.30;;;;;;;;;;4948905;28;20026;-85
2021/08/18 09:28:04;;;;;;;0.80;0.80;;;;;;;;;;4945730;28;20174;-88
2021/08/18 09:30:41;;;;;;;14.35;11.10;;;;;;;;;;4947048;28;20541;-87
2021/08/18 09:33:17;;;;;;;3.67;2.60;;;;;;;;;;4947984;28;20394;-87
2021/08/18 09:35:43;;;;;;;1.60;1.10;;;;;;;;;;4948751;28;20066;-87
2021/08/18 09:38:10;;;;;;;1.52;1.27;;;;;;;;;;4951326;28;20039;-86
2021/08/18 09:40:38;;;;;;;0.82;0.80;;;;;;;;;;4941198;28;20379;-87
2021/08/18 09:43:30;;;;;;;1.05;0.80;;;;;;;;;;5045908;28;20491;-88
2021/08/18 09:46:02;;;;;;;1.27;1.00;;;;;;;;;;5048710;28;20060;-85
2021/08/18 09:48:28;;;;;;;1.08;0.98;;;;;;;;;;5050005;28;20096;-86
2021/08/18 09:50:55;;;;;;;1.95;0.85;;;;;;;;;;5055995;28;20087;-87
2021/08/18 09:53:25;;;;;;;0.73;0.73;;;;;;;;;;5060816;28;20563;-87
2021/08/18 09:55:50;;;;;;;;;;;;;;;;;;5065413;28;20088;-88
2021/08/18 09:58:20;;;;;;;1.10;0.80;;;;;;;;;;5077129;28;19917;-90
2021/08/18 10:00:46;;;;;;;1.02;0.80;;;;;;;;;;5074986;28;20071;-89
2021/08/18 10:03:11;;;;;;;2.35;0.90;;;;;;;;;;5068510;28;20391;-88
2021/08/18 10:06:14;;;;;;;0.70;0.70;;;;;;;;;;5069881;28;20047;-92
2021/08/18 10:08:44;;;;;;;1.27;0.80;;;;;;;;;;5059755;28;20021;-90
2021/08/18 10:11:11;;;;;;;0.75;0.75;;;;;;;;;;5060052;28;20021;-90
2021/08/18 10:13:36;;;;;;;0.75;0.75;;;;;;;;;;5055416;28;20018;-90
2021/08/18 10:16:05;;;;;;;0.75;0.75;;;;;;;;;;5055070;28;20020;-91
2021/08/18 10:18:37;;;;;;;1.30;0.90;;;;;;;;;;5045932;28;20021;-90
2021/08/18 10:21:06;;;;;;;3.13;1.80;;;;;;;;;;5062237;28;20021;-90
2021/08/18 10:23:51;;;;;;;15.20;11.77;;;;;;;;;;5055501;28;20471;-90
2021/08/18 10:26:38;;;;;;;2.90;1.30;;;;;;;;;;5043556;28;20029;-89
2021/08/18 10:29:29;;;;;;;1.83;1.20;;;;;;;;;;5047352;28;20276;-89
2021/08/18 10:31:55;;;;;;;1.45;1.27;;;;;;;;;;5047403;28;20371;-88
2021/08/18 10:34:21;;;;;;;0.95;0.95;;;;;;;;;;5048682;28;20029;-91
2021/08/18 10:36:51;;;;;;;1.80;1.08;;;;;;;;;;5050385;28;20025;-91
2021/08/18 10:39:23;;;;;;;0.90;0.90;;;;;;;;;;5051760;28;21562;-91
2021/08/18 10:42:02;;;;;;;0.95;0.95;;;;;;;;;;5050632;28;20068;-91
2021/08/18 10:44:27;;;;;;;;;;;;;;;;;;5046044;28;20064;-91
2021/08/18 10:47:19;;;;;;;1.07;0.97;;;;;;;;;;5051620;28;19932;-91
2021/08/18 10:50:04;;;;;;;;;;;;;;;;;;;;;
2021/08/18 10:52:30;;;;;;;1.40;1.20;;;;;;;;;;5052247;28;20442;-92
2021/08/18 10:58:32;;;;;;;1.38;1.13;;;;;;;;;;5042996;28;20036;-90
2021/08/18 11:00:57;;;;;;;1.38;1.05;;;;;;;;;;5036284;28;20052;-88
2021/08/18 11:03:27;;;;;;;1.77;1.30;;;;;;;;;;5038280;28;20475;-92
2021/08/18 11:05:58;;;;;;;3.58;1.35;;;;;;;;;;5034170;28;20391;-88
2021/08/18 11:08:24;;;;;;;1.40;1.20;;;;;;;;;;5033419;28;20467;-90
2021/08/18 11:10:50;;;;;;;1.30;1.20;;;;;;;;;;5044657;28;20018;-91
2021/08/18 11:13:16;;;;;;;2.30;1.17;;;;;;;;;;5043157;28;20028;-90
2021/08/18 11:15:41;;;;;;;3.13;1.30;;;;;;;;;;5034956;28;20014;-89
2021/08/18 11:18:07;;;;;;;1.45;1.20;;;;;;;;;;5036510;28;20039;-89
2021/08/18 11:20:33;;;;;;;1.40;1.10;;;;;;;;;;5034299;28;20116;-89
2021/08/18 11:22:59;;;;;;;1.48;1.38;;;;;;;;;;5034933;28;20017;-89
2021/08/18 11:25:25;;;;;;;3.20;1.35;;;;;;;;;;5035208;28;20029;-90
2021/08/18 11:27:51;;;;;;;1.30;1.20;;;;;;;;;;5037352;28;20025;-87
2021/08/18 11:30:23;;;;;;;3.72;1.55;;;;;;;;;;5037597;28;20337;-88
2021/08/18 11:32:49;;;;;;;5.05;2.03;;;;;;;;;;5038009;28;20540;-88
2021/08/18 11:35:29;;;;;;;3.47;1.60;;;;;;;;;;5032041;28;20044;-88
2021/08/18 11:41:08;;;;;;;1.80;1.63;;;;;;;;;;5030221;28;20029;-89
2021/08/18 11:43:38;;;;;;;6.93;2.30;;;;;;;;;;5040062;28;20495;-89
2021/08/18 11:46:04;;;;;;;3.35;1.85;;;;;;;;;;5042169;28;20373;-88
2021/08/18 11:48:30;;;;;;;1.95;1.63;;;;;;;;;;5042201;28;20018;-90
2021/08/18 11:50:59;;;;;;;3.00;1.88;;;;;;;;;;5050482;28;20020;-89
2021/08/18 11:53:25;;;;;;;2.35;1.38;;;;;;;;;;5031282;28;20029;-88
2021/08/18 11:55:58;;;;;;;1.60;1.50;;;;;;;;;;5037641;28;20033;-87
2021/08/18 11:58:31;;;;;;;2.75;1.75;;;;;;;;;;5035562;28;20765;-92
2021/08/18 12:01:05;;;;;;;3.15;1.67;;;;;;;;;;5040849;28;20233;-91
2021/08/18 12:03:31;;;;;;;2.30;1.83;;;;;;;;;;5030967;28;20040;-87
2021/08/18 12:05:59;;;;;;;1.70;1.40;;;;;;;;;;5036442;28;20017;-87
2021/08/18 12:08:38;;;;;;;4.47;2.45;;;;;;;;;;5035366;28;20388;-88
2021/08/18 12:11:05;;;;;;;4.60;1.80;;;;;;;;;;5031098;28;20422;-87
2021/08/18 12:13:44;;;;;;;3.28;1.67;;;;;;;;;;5032946;28;20377;-84
2021/08/18 12:16:28;;;;;;;2.92;1.95;;;;;;;;;;5031573;28;20021;-86
2021/08/18 12:19:11;;;;;;;4.15;1.70;;;;;;;;;;5033112;28;20519;-87
2021/08/18 12:21:37;;;;;;;5.00;2.15;;;;;;;;;;5031190;28;20381;-85
2021/08/18 12:24:34;;;;;;;4.55;2.15;;;;;;;;;;5034986;28;20029;-83
2021/08/18 12:27:03;;;;;;;3.60;1.83;;;;;;;;;;5032214;28;20017;-87
2021/08/18 12:29:29;;;;;;;13.60;11.32;;;;;;;;;;5029372;28;20029;-86
2021/08/18 12:32:01;;;;;;;19.83;16.17;;;;;;;;;;5032475;28;20025;-86
2021/08/18 12:34:36;;;;;;;4.80;2.40;;;;;;;;;;5028597;28;20427;-84
2021/08/18 12:37:06;;;;;;;3.15;1.50;;;;;;;;;;5031073;28;20670;-85
2021/08/18 12:39:32;;;;;;;3.15;1.63;;;;;;;;;;5030833;28;20044;-83
2021/08/18 12:41:57;;;;;;;2.00;1.60;;;;;;;;;;5031115;28;20392;-84
2021/08/18 12:44:37;;;;;;;1.50;1.40;;;;;;;;;;5031840;28;20021;-85
2021/08/18 12:47:13;;;;;;;3.75;2.30;;;;;;;;;;5030197;28;20018;-85
2021/08/18 12:49:46;;;;;;;2.22;1.20;;;;;;;;;;5031662;28;20013;-84
2021/08/18 12:52:11;;;;;;;1.25;1.00;;;;;;;;;;5029067;28;20033;-83
2021/08/18 12:54:36;;;;;;;1.25;1.10;;;;;;;;;;5032327;28;20095;-85
2021/08/18 12:57:05;;;;;;;1.63;1.25;;;;;;;;;;5034232;28;20480;-82
2021/08/18 12:59:37;;;;;;;1.30;1.10;;;;;;;;;;5030092;28;21796;-86
2021/08/18 13:02:03;;;;;;;0.80;0.80;;;;;;;;;;5029330;28;20563;-84
2021/08/18 13:04:28;;;;;;;1.40;1.10;;;;;;;;;;5043235;28;20104;-85
2021/08/18 13:06:54;;;;;;;0.98;0.82;;;;;;;;;;5033531;28;20083;-86
2021/08/18 13:09:19;;;;;;;5.70;5.07;;;;;;;;;;5032920;28;20017;-86
2021/08/18 13:11:45;;;;;;;22.75;17.40;;;;;;;;;;5030826;28;20037;-86
2021/08/18 13:14:11;;;;;;;3.35;2.28;;;;;;;;;;5033788;28;20295;-83
2021/08/18 13:16:36;;;;;;;2.47;1.77;;;;;;;;;;5030361;28;20121;-86
2021/08/18 13:19:02;;;;;;;2.58;0.90;;;;;;;;;;5031129;28;20040;-87
2021/08/18 13:21:27;;;;;;;1.98;0.93;;;;;;;;;;5031326;28;20021;-86
2021/08/18 13:23:52;;;;;;;2.42;1.02;;;;;;;;;;5030396;28;20025;-85
2021/08/18 13:26:18;;;;;;;0.90;0.73;;;;;;;;;;5032642;28;20045;-85
2021/08/18 13:28:43;;;;;;;0.88;0.88;;;;;;;;;;5031227;28;20013;-85
2021/08/18 13:31:08;;;;;;;1.40;1.10;;;;;;;;;;5030546;28;20017;-86
2021/08/18 13:33:34;;;;;;;1.35;1.20;;;;;;;;;;5033522;28;20140;-85
2021/08/18 13:36:00;;;;;;;2.30;1.13;;;;;;;;;;5031743;28;20024;-87
2021/08/18 13:38:26;;;;;;;1.20;0.90;;;;;;;;;;5032824;28;20029;-86
2021/08/18 13:40:51;;;;;;;1.85;1.35;;;;;;;;;;5032162;28;20030;-86
2021/08/18 13:43:16;;;;;;;2.28;1.45;;;;;;;;;;5031617;28;20041;-85
2021/08/18 13:45:42;;;;;;;1.40;1.27;;;;;;;;;;5032066;28;20045;-85
2021/08/18 13:48:07;;;;;;;1.20;1.10;;;;;;;;;;5030164;28;20098;-86
2021/08/18 13:50:32;;;;;;;1.60;1.10;;;;;;;;;;5033123;28;20022;-86
2021/08/18 13:52:58;;;;;;;1.77;1.20;;;;;;;;;;5031260;28;20033;-87
2021/08/18 13:55:23;;;;;;;3.85;1.30;;;;;;;;;;5031915;28;20260;-86
2021/08/18 13:57:49;;;;;;;2.17;1.00;;;;;;;;;;5035212;28;20036;-85
2021/08/18 14:00:14;;;;;;;1.15;1.05;;;;;;;;;;5034982;28;20117;-86
2021/08/18 14:02:40;;;;;;;4.25;1.70;;;;;;;;;;5039651;28;20093;-85
2021/08/18 14:05:05;;;;;;;3.05;1.40;;;;;;;;;;5034756;28;20029;-87
2021/08/18 14:07:31;;;;;;;2.72;1.50;;;;;;;;;;5029567;28;20044;-86
2021/08/18 14:09:56;;;;;;;2.08;1.20;;;;;;;;;;5030715;28;20017;-86
2021/08/18 14:12:22;;;;;;;1.40;1.20;;;;;;;;;;5036170;28;20033;-86
2021/08/18 14:14:47;;;;;;;1.40;1.10;;;;;;;;;;5031320;28;20021;-87
2021/08/18 14:17:13;;;;;;;3.50;1.30;;;;;;;;;;5035428;28;20032;-87
2021/08/18 14:19:38;;;;;;;1.45;1.35;;;;;;;;;;5031224;28;20022;-88
2021/08/18 14:22:04;;;;;;;2.08;1.40;;;;;;;;;;5033556;28;20018;-85
2021/08/18 14:24:29;;;;;;;2.65;1.38;;;;;;;;;;5032175;28;20519;-86
2021/08/18 14:26:55;;;;;;;6.63;3.10;;;;;;;;;;5035690;28;21201;-84
2021/08/18 14:29:20;;;;;;;7.50;3.13;;;;;;;;;;5034650;28;20025;-84
2021/08/18 14:31:45;;;;;;;3.67;1.83;;;;;;;;;;5029340;28;20025;-84
2021/08/18 14:34:11;;;;;;;2.15;1.40;;;;;;;;;;5035786;28;20022;-84
2021/08/18 14:36:36;;;;;;;1.98;1.30;;;;;;;;;;5032407;28;20036;-87
2021/08/18 14:39:05;;;;;;;1.95;1.40;;;;;;;;;;5041583;28;20092;-90
2021/08/18 14:41:38;;;;;;;2.10;1.52;;;;;;;;;;5037960;28;20045;-89
2021/08/18 14:44:23;;;;;;;;;;;;;;;;;;;;;
2021/08/18 14:50:39;;;;;;;2.30;1.67;;;;;;;;;;5040263;28;21206;-91
2021/08/18 14:53:08;;;;;;;2.55;1.50;;;;;;;;;;5033014;28;20025;-86
2021/08/18 14:58:54;;;;;;;3.35;1.50;;;;;;;;;;5037034;28;20667;-89
2021/08/18 15:01:36;;;;;;;2.65;1.70;;;;;;;;;;5047114;28;20263;-92
2021/08/18 15:04:02;;;;;;;3.30;1.45;;;;;;;;;;5055224;28;20036;-89
2021/08/18 15:06:27;;;;;;;1.48;1.20;;;;;;;;;;5050772;28;20029;-90
2021/08/18 15:08:52;;;;;;;3.85;1.30;;;;;;;;;;5040079;28;20028;-90
2021/08/18 15:11:30;;;;;;;2.85;1.30;;;;;;;;;;5046879;28;20021;-90
2021/08/18 15:13:55;;;;;;;1.58;1.40;;;;;;;;;;5049872;28;20379;-90
2021/08/18 15:16:21;;;;;;;1.60;1.25;;;;;;;;;;5049179;28;20041;-91
2021/08/18 15:18:46;;;;;;;4.63;1.40;;;;;;;;;;5056564;28;20017;-90
2021/08/18 15:21:12;;;;;;;3.65;1.23;;;;;;;;;;5047229;28;20017;-90
2021/08/18 15:23:37;;;;;;;1.90;1.40;;;;;;;;;;5048967;28;20017;-90
2021/08/18 15:26:03;;;;;;;2.10;1.33;;;;;;;;;;5041704;28;20017;-90
2021/08/18 15:28:28;;;;;;;2.25;1.30;;;;;;;;;;5041323;28;20025;-89
2021/08/18 15:30:54;;;;;;;2.88;2.08;;;;;;;;;;5045232;28;20093;-87
2021/08/18 15:33:19;;;;;;;2.63;1.92;;;;;;;;;;5040407;28;20032;-90
2021/08/18 15:35:44;;;;;;;3.95;1.63;;;;;;;;;;5043032;28;20024;-91
2021/08/18 15:38:10;;;;;;;1.73;1.20;;;;;;;;;;5051256;28;20029;-89
2021/08/18 15:40:35;;;;;;;2.47;1.30;;;;;;;;;;5043222;28;20029;-89
2021/08/18 15:43:01;;;;;;;2.92;1.65;;;;;;;;;;5036617;28;20034;-89
2021/08/18 15:45:27;;;;;;;3.22;1.50;;;;;;;;;;5044574;28;20036;-89
2021/08/18 15:47:53;;;;;;;3.58;1.73;;;;;;;;;;5043629;28;20372;-89
2021/08/18 15:50:18;;;;;;;2.63;1.90;;;;;;;;;;5043301;28;20064;-89